createdAt,value
2023-05-10T00:00:30.329Z,50.64
2023-05-10T00:03:30.497Z,50.88
2023-05-10T00:06:30.250Z,51.40
2023-05-10T00:09:30.300Z,51.20
2023-05-10T00:12:30.317Z,51.34
2023-05-10T00:15:30.258Z,51.34
2023-05-10T00:18:30.308Z,50.52
2023-05-10T00:21:30.269Z,51.33
2023-05-10T00:24:32.312Z,50.94
2023-05-10T00:27:32.319Z,50.69
2023-05-10T00:30:32.359Z,51.06
2023-05-10T00:33:32.470Z,51.11
2023-05-10T00:36:32.470Z,50.69
2023-05-10T00:39:34.414Z,51.18
2023-05-10T00:42:34.367Z,51.49
2023-05-10T00:45:37.337Z,51.82
2023-05-10T00:48:37.378Z,51.37
2023-05-10T00:51:38.424Z,52.05
2023-05-10T00:54:38.435Z,52.60
2023-05-10T00:57:39.438Z,51.91
2023-05-10T01:00:39.395Z,51.55
2023-05-10T01:03:39.433Z,51.99
2023-05-10T01:06:39.315Z,52.40
2023-05-10T01:09:39.379Z,52.50
2023-05-10T01:12:39.379Z,52.79
2023-05-10T01:15:39.458Z,52.56
2023-05-10T01:18:40.532Z,52.59
2023-05-10T01:21:47.429Z,52.57
2023-05-10T01:24:59.505Z,52.71
2023-05-10T01:28:20.449Z,52.67
2023-05-10T01:31:32.537Z,52.92
2023-05-10T01:34:36.426Z,52.79
2023-05-10T01:37:39.450Z,52.53
2023-05-10T01:41:02.427Z,52.21
2023-05-10T01:44:07.986Z,52.22
2023-05-10T01:47:15.451Z,52.01
2023-05-10T01:50:18.663Z,51.70
2023-05-10T01:53:22.474Z,51.60
2023-05-10T01:56:22.416Z,51.65
2023-05-10T01:59:26.444Z,51.54
2023-05-10T02:02:27.488Z,51.47
2023-05-10T02:05:29.419Z,51.59
2023-05-10T02:08:30.500Z,51.73
2023-05-10T02:11:30.459Z,51.84
2023-05-10T02:14:37.477Z,51.81
2023-05-10T02:17:37.555Z,51.65
2023-05-10T02:20:40.551Z,51.64
2023-05-10T02:23:40.487Z,51.79
2023-05-10T02:26:40.494Z,51.88
2023-05-10T02:29:41.537Z,52.05
2023-05-10T02:32:42.543Z,51.90
2023-05-10T02:35:42.549Z,51.64
2023-05-10T02:38:42.541Z,51.59
2023-05-10T02:41:43.553Z,51.79
2023-05-10T02:44:43.551Z,51.70
2023-05-10T02:47:43.604Z,51.91
2023-05-10T02:50:43.652Z,52.16
2023-05-10T02:53:46.541Z,52.48
2023-05-10T02:56:47.742Z,52.33
2023-05-10T02:59:47.550Z,53.91
2023-05-10T03:02:47.658Z,53.99
2023-05-10T03:05:47.660Z,53.74
2023-05-10T03:08:47.545Z,53.15
2023-05-10T03:12:05.584Z,53.49
2023-05-10T03:15:06.625Z,53.64
2023-05-10T03:18:13.596Z,53.38
2023-05-10T03:21:13.658Z,52.58
2023-05-10T03:24:22.572Z,52.33
2023-05-10T03:27:22.610Z,52.37
2023-05-10T03:30:22.635Z,52.24
2023-05-10T03:33:22.668Z,51.95
2023-05-10T03:36:23.603Z,51.59
2023-05-10T03:39:23.717Z,51.87
2023-05-10T03:42:24.612Z,51.77
2023-05-10T03:45:24.630Z,51.74
2023-05-10T03:48:24.645Z,51.94
2023-05-10T03:51:24.698Z,52.23
2023-05-10T03:54:24.645Z,52.26
2023-05-10T03:57:25.876Z,52.17
2023-05-10T04:00:25.668Z,51.96
2023-05-10T04:03:27.740Z,51.82
2023-05-10T04:06:27.722Z,51.73
2023-05-10T04:09:27.654Z,51.67
2023-05-10T04:12:27.987Z,51.30
2023-05-10T04:15:27.686Z,51.34
2023-05-10T04:18:34.765Z,51.16
2023-05-10T04:21:34.737Z,50.98
2023-05-10T04:24:34.698Z,50.36
2023-05-10T04:27:34.721Z,50.01
2023-05-10T04:30:35.770Z,49.93
2023-05-10T04:33:35.745Z,50.15
2023-05-10T04:36:36.736Z,49.85
2023-05-10T04:39:36.723Z,49.56
2023-05-10T04:42:37.722Z,49.29
2023-05-10T04:45:38.774Z,49.14
2023-05-10T04:48:38.740Z,48.97
2023-05-10T04:51:38.762Z,48.74
2023-05-10T04:54:38.734Z,48.42
2023-05-10T04:57:38.742Z,48.53
2023-05-10T05:00:38.799Z,47.97
2023-05-10T05:04:07.613Z,47.98
2023-05-10T05:07:01.767Z,47.69
2023-05-10T05:10:01.746Z,47.65
2023-05-10T05:13:01.879Z,47.53
2023-05-10T05:16:01.812Z,46.76
2023-05-10T05:19:01.836Z,46.31
2023-05-10T05:22:01.849Z,45.10
2023-05-10T05:25:01.790Z,43.34
2023-05-10T05:28:01.764Z,41.69
2023-05-10T05:31:01.758Z,40.41
2023-05-10T05:34:01.816Z,39.84
2023-05-10T05:37:01.808Z,39.26
2023-05-10T05:40:01.834Z,39.11
2023-05-10T05:43:01.980Z,38.73
2023-05-10T05:46:02.157Z,38.30
2023-05-10T05:49:02.981Z,38.89
2023-05-10T05:52:02.805Z,39.13
2023-05-10T05:55:03.957Z,39.21
2023-05-10T05:58:04.010Z,39.25
2023-05-10T06:01:03.882Z,39.40
2023-05-10T06:04:03.955Z,39.67
2023-05-10T06:07:03.906Z,39.34
2023-05-10T06:10:03.899Z,38.73
2023-05-10T06:13:05.864Z,37.31
2023-05-10T06:16:06.026Z,36.23
2023-05-10T06:19:06.109Z,35.44
2023-05-10T06:22:05.939Z,34.98
2023-05-10T06:25:05.885Z,34.77
2023-05-10T06:28:06.947Z,34.59
2023-05-10T06:31:08.906Z,34.90
2023-05-10T06:34:11.180Z,34.58
2023-05-10T06:37:11.992Z,33.80
2023-05-10T06:40:13.307Z,33.18
2023-05-10T06:43:13.962Z,32.02
2023-05-10T06:46:14.012Z,31.17
2023-05-10T06:49:14.144Z,30.67
2023-05-10T06:52:14.946Z,30.03
2023-05-10T06:55:16.344Z,29.26
2023-05-10T06:58:18.025Z,28.64
2023-05-10T07:01:18.222Z,27.09
2023-05-10T07:04:19.062Z,26.95
2023-05-10T07:07:19.001Z,25.95
2023-05-10T07:10:19.979Z,25.42
2023-05-10T07:13:20.183Z,24.77
2023-05-10T07:16:20.053Z,24.17
2023-05-10T07:19:20.040Z,23.62
2023-05-10T07:22:20.017Z,22.99
2023-05-10T07:25:20.040Z,22.66
2023-05-10T07:28:21.045Z,22.72
2023-05-10T07:31:21.072Z,23.07
2023-05-10T07:34:21.039Z,23.60
2023-05-10T07:37:22.086Z,24.05
2023-05-10T07:40:22.237Z,24.23
2023-05-10T07:43:23.656Z,24.12
2023-05-10T07:46:27.114Z,24.31
2023-05-10T07:49:27.243Z,24.55
2023-05-10T07:52:27.146Z,24.95
2023-05-10T07:55:28.303Z,24.96
2023-05-10T07:58:29.198Z,25.07
2023-05-10T08:01:30.118Z,25.39
2023-05-10T08:04:30.144Z,24.77
2023-05-10T08:07:31.286Z,24.74
2023-05-10T08:10:31.152Z,24.37
2023-05-10T08:13:32.161Z,24.30
2023-05-10T08:16:32.200Z,23.88
2023-05-10T08:19:32.173Z,24.32
2023-05-10T08:22:33.731Z,24.75
2023-05-10T08:25:34.198Z,25.05
2023-05-10T08:28:34.284Z,24.63
2023-05-10T08:31:34.487Z,23.71
2023-05-10T08:34:34.342Z,23.43
2023-05-10T08:37:37.282Z,23.27
2023-05-10T08:40:38.168Z,22.93
2023-05-10T08:43:42.248Z,22.49
2023-05-10T08:46:45.462Z,21.88
2023-05-10T08:49:45.590Z,21.54
2023-05-10T08:52:47.186Z,21.04
2023-05-10T08:55:47.268Z,20.62
2023-05-10T08:58:47.226Z,20.87
2023-05-10T09:01:47.196Z,21.13
2023-05-10T09:04:47.327Z,21.67
2023-05-10T09:07:48.206Z,22.34
2023-05-10T09:10:49.271Z,23.08
2023-05-10T09:13:49.198Z,23.49
2023-05-10T09:16:50.334Z,23.66
2023-05-10T09:19:50.325Z,23.27
2023-05-10T09:22:51.401Z,22.77
2023-05-10T09:25:51.224Z,22.19
2023-05-10T09:29:04.372Z,22.35
2023-05-10T09:32:04.283Z,22.45
2023-05-10T09:35:04.433Z,23.36
2023-05-10T09:38:04.297Z,23.87
2023-05-10T09:41:09.313Z,24.65
2023-05-10T09:44:09.360Z,25.44
2023-05-10T09:47:11.468Z,26.16
2023-05-10T09:50:11.329Z,26.16
2023-05-10T09:53:11.287Z,26.60
2023-05-10T09:56:12.434Z,26.01
2023-05-10T09:59:18.719Z,25.68
2023-05-10T10:02:19.272Z,25.33
2023-05-10T10:05:20.264Z,24.79
2023-05-10T10:08:20.414Z,24.76
2023-05-10T10:11:20.392Z,25.04
2023-05-10T10:14:20.344Z,25.18
2023-05-10T10:17:20.334Z,25.34
2023-05-10T10:20:20.511Z,26.16
2023-05-10T10:23:22.324Z,27.82
2023-05-10T10:26:22.340Z,28.92
2023-05-10T10:29:45.406Z,29.71
2023-05-10T10:33:10.236Z,30.43
2023-05-10T10:36:17.434Z,30.97
2023-05-10T10:39:19.324Z,31.21
2023-05-10T10:42:19.372Z,31.28
2023-05-10T10:45:25.390Z,31.41
2023-05-10T10:48:33.418Z,31.70
2023-05-10T10:51:33.408Z,31.65
2023-05-10T10:54:42.471Z,31.38
2023-05-10T10:57:42.502Z,30.60
2023-05-10T11:00:46.420Z,30.54
2023-05-10T11:03:47.550Z,30.38
2023-05-10T11:06:47.425Z,30.19
2023-05-10T11:09:53.459Z,29.87
2023-05-10T11:13:07.434Z,29.78
2023-05-10T11:16:07.520Z,29.63
2023-05-10T11:19:08.608Z,29.22
2023-05-10T11:22:17.627Z,28.16
2023-05-10T11:25:17.761Z,28.38
2023-05-10T11:28:28.876Z,28.39
2023-05-10T11:31:38.264Z,28.32
2023-05-10T11:35:09.913Z,27.42
2023-05-10T11:38:24.926Z,26.58
2023-05-10T11:41:29.486Z,26.36
2023-05-10T11:44:29.583Z,26.35
2023-05-10T11:47:30.580Z,25.74
2023-05-10T11:50:30.506Z,25.95
2023-05-10T11:53:30.517Z,25.60
2023-05-10T11:56:30.551Z,25.20
2023-05-10T11:59:33.031Z,25.53
2023-05-10T12:02:34.479Z,25.42
2023-05-10T12:05:34.611Z,25.67
2023-05-10T12:08:34.482Z,25.21
2023-05-10T12:11:34.601Z,24.89
2023-05-10T12:14:35.789Z,25.05
2023-05-10T12:17:35.628Z,25.29
2023-05-10T12:20:37.557Z,25.36
2023-05-10T12:23:37.585Z,25.47
2023-05-10T12:26:30.874Z,25.11
2023-05-10T12:29:32.848Z,25.43
2023-05-10T12:32:33.965Z,25.50
2023-05-10T12:35:34.751Z,25.78
2023-05-10T12:38:54.607Z,25.66
2023-05-10T12:41:54.639Z,25.63
2023-05-10T12:44:54.595Z,25.71
2023-05-10T12:47:54.605Z,25.85
2023-05-10T12:50:54.641Z,25.78
2023-05-10T12:53:54.764Z,26.03
2023-05-10T12:56:54.645Z,25.97
2023-05-10T12:59:54.768Z,26.32
2023-05-10T13:02:57.789Z,26.34
2023-05-10T13:05:57.770Z,26.60
2023-05-10T13:08:57.681Z,26.59
2023-05-10T13:12:01.044Z,26.46
2023-05-10T13:15:01.774Z,26.55
2023-05-10T13:18:02.832Z,26.80
2023-05-10T13:21:02.661Z,27.06
2023-05-10T13:24:02.674Z,26.92
2023-05-10T13:27:02.863Z,26.94
2023-05-10T13:30:02.755Z,25.75
2023-05-10T13:33:02.813Z,25.42
2023-05-10T13:36:03.703Z,25.19
2023-05-10T13:39:03.754Z,25.15
2023-05-10T13:42:04.761Z,25.68
2023-05-10T13:45:04.855Z,25.89
2023-05-10T13:48:04.792Z,25.92
2023-05-10T13:51:04.837Z,25.89
2023-05-10T13:54:04.734Z,26.03
2023-05-10T13:57:06.847Z,25.81
2023-05-10T14:00:06.747Z,25.95
2023-05-10T14:03:06.962Z,25.72
2023-05-10T14:06:07.082Z,25.21
2023-05-10T14:09:06.716Z,24.78
2023-05-10T14:12:06.786Z,24.82
2023-05-10T14:15:07.847Z,24.66
2023-05-10T14:18:07.961Z,24.94
2023-05-10T14:21:07.812Z,24.27
2023-05-10T14:24:07.856Z,24.36
2023-05-10T14:27:07.827Z,24.36
2023-05-10T14:30:07.784Z,24.47
2023-05-10T14:33:07.847Z,24.69
2023-05-10T14:36:07.825Z,24.68
2023-05-10T14:39:07.858Z,24.67
2023-05-10T14:42:07.813Z,24.65
2023-05-10T14:45:07.861Z,24.37
2023-05-10T14:48:07.826Z,24.54
2023-05-10T14:51:07.793Z,24.65
2023-05-10T14:54:09.770Z,24.83
2023-05-10T14:57:10.034Z,25.00
2023-05-10T15:00:13.882Z,25.21
2023-05-10T15:03:15.226Z,25.30
2023-05-10T15:06:15.906Z,25.29
2023-05-10T15:09:15.933Z,25.09
2023-05-10T15:12:15.834Z,25.24
2023-05-10T15:15:16.094Z,25.18
2023-05-10T15:18:19.123Z,25.05
2023-05-10T15:21:18.848Z,25.13
2023-05-10T15:24:18.977Z,25.19
2023-05-10T15:27:18.905Z,25.38
2023-05-10T15:30:19.239Z,25.51
2023-05-10T15:33:19.166Z,25.42
2023-05-10T15:36:19.028Z,25.41
2023-05-10T15:39:19.186Z,25.54
2023-05-10T15:42:19.933Z,25.77
2023-05-10T15:45:20.343Z,26.19
2023-05-10T15:48:20.907Z,25.94
2023-05-10T15:51:22.795Z,25.89
2023-05-10T15:54:26.994Z,25.79
2023-05-10T15:57:28.070Z,25.75
2023-05-10T16:00:32.298Z,26.24
2023-05-10T16:03:37.637Z,26.39
2023-05-10T16:06:38.947Z,26.10
2023-05-10T16:09:40.382Z,26.20
2023-05-10T16:12:43.298Z,26.43
2023-05-10T16:15:37.975Z,26.46
2023-05-10T16:18:38.108Z,26.46
2023-05-10T16:21:40.987Z,26.41
2023-05-10T16:24:40.963Z,26.31
2023-05-10T16:27:41.561Z,26.09
2023-05-10T16:30:43.021Z,26.17
2023-05-10T16:33:42.970Z,26.41
2023-05-10T16:36:43.039Z,26.70
2023-05-10T16:39:43.003Z,26.72
2023-05-10T16:42:43.062Z,26.72
2023-05-10T16:45:45.246Z,26.78
2023-05-10T16:48:45.217Z,26.90
2023-05-10T16:51:44.998Z,27.16
2023-05-10T16:54:45.013Z,27.26
2023-05-10T16:57:46.107Z,27.21
2023-05-10T17:00:46.114Z,27.22
2023-05-10T17:03:46.258Z,27.27
2023-05-10T17:06:48.140Z,27.57
2023-05-10T17:09:49.057Z,27.83
2023-05-10T17:12:49.266Z,27.97
2023-05-10T17:15:49.223Z,28.16
2023-05-10T17:18:52.151Z,28.33
2023-05-10T17:21:54.246Z,28.49
2023-05-10T17:24:54.141Z,28.73
2023-05-10T17:27:55.142Z,29.01
2023-05-10T17:30:56.057Z,29.22
2023-05-10T17:33:56.156Z,29.41
2023-05-10T17:36:57.146Z,29.65
2023-05-10T17:39:59.874Z,29.88
2023-05-10T17:43:00.071Z,30.15
2023-05-10T17:46:02.701Z,30.25
2023-05-10T17:49:03.544Z,30.50
2023-05-10T17:52:04.426Z,30.62
2023-05-10T17:55:04.434Z,30.73
2023-05-10T17:58:08.399Z,31.09
2023-05-10T18:01:09.459Z,31.25
2023-05-10T18:04:09.460Z,31.26
2023-05-10T18:07:09.139Z,31.40
2023-05-10T18:10:09.143Z,31.77
2023-05-10T18:13:11.184Z,31.94
2023-05-10T18:16:12.175Z,32.14
2023-05-10T18:19:14.199Z,32.36
2023-05-10T18:22:14.259Z,32.49
2023-05-10T18:25:17.636Z,32.90
2023-05-10T18:28:18.126Z,33.14
2023-05-10T18:31:18.268Z,33.22
2023-05-10T18:34:18.196Z,33.61
2023-05-10T18:37:18.193Z,33.91
2023-05-10T18:40:20.209Z,34.09
2023-05-10T18:43:20.238Z,34.02
2023-05-10T18:46:20.196Z,34.10
2023-05-10T18:49:20.550Z,34.21
2023-05-10T18:52:22.233Z,34.07
2023-05-10T18:55:23.732Z,34.47
2023-05-10T18:58:26.292Z,34.72
2023-05-10T19:01:26.257Z,34.57
2023-05-10T19:04:26.499Z,34.77
2023-05-10T19:07:26.239Z,34.72
2023-05-10T19:10:26.298Z,34.76
2023-05-10T19:13:26.284Z,34.87
2023-05-10T19:16:29.440Z,34.97
2023-05-10T19:19:29.367Z,35.06
2023-05-10T19:25:35.244Z,35.35
2023-05-10T19:28:37.222Z,35.28
2023-05-10T19:31:37.608Z,35.24
2023-05-10T19:34:37.304Z,35.01
2023-05-10T19:37:38.498Z,35.04
2023-05-10T19:40:38.340Z,35.19
2023-05-10T19:43:43.303Z,35.34
2023-05-10T19:46:43.392Z,35.36
2023-05-10T19:49:44.643Z,35.37
2023-05-10T19:52:45.359Z,35.89
2023-05-10T19:55:46.358Z,35.86
2023-05-10T19:58:47.343Z,36.14
2023-05-10T20:01:47.427Z,36.38
2023-05-10T20:04:49.516Z,36.41
2023-05-10T20:07:50.772Z,36.23
2023-05-10T20:10:51.836Z,36.09
2023-05-10T20:13:52.431Z,36.06
2023-05-10T20:16:52.448Z,36.45
2023-05-10T20:19:54.321Z,37.34
2023-05-10T20:22:54.412Z,37.46
2023-05-10T20:25:57.442Z,37.57
2023-05-10T20:28:57.413Z,38.95
2023-05-10T20:31:57.461Z,39.96
2023-05-10T20:34:57.443Z,40.44
2023-05-10T20:37:57.465Z,41.51
2023-05-10T20:40:57.705Z,43.09
2023-05-10T20:43:58.715Z,43.99
2023-05-10T20:46:59.577Z,43.94
2023-05-10T20:50:00.432Z,43.73
2023-05-10T20:53:01.593Z,45.03
2023-05-10T20:56:02.428Z,44.80
2023-05-10T20:59:02.935Z,45.42
2023-05-10T21:02:03.497Z,46.41
2023-05-10T21:05:03.481Z,46.79
2023-05-10T21:08:05.745Z,47.17
2023-05-10T21:11:05.495Z,47.44
2023-05-10T21:14:05.797Z,49.78
2023-05-10T21:17:05.496Z,51.87
2023-05-10T21:20:05.501Z,52.92
2023-05-10T21:23:05.621Z,53.24
2023-05-10T21:26:07.528Z,53.85
2023-05-10T21:29:07.564Z,54.45
2023-05-10T21:32:07.664Z,54.83
2023-05-10T21:35:07.491Z,54.53
2023-05-10T21:38:07.471Z,54.01
2023-05-10T21:41:07.541Z,52.84
2023-05-10T21:44:07.464Z,51.39
2023-05-10T21:47:07.543Z,49.90
2023-05-10T21:50:07.548Z,50.05
2023-05-10T21:53:10.063Z,50.35
2023-05-10T21:56:10.509Z,50.45
2023-05-10T22:00:59.718Z,50.27
2023-05-10T22:04:00.690Z,52.95
2023-05-10T22:06:54.783Z,54.43
2023-05-10T22:09:56.797Z,55.76
2023-05-10T22:12:58.713Z,55.34
2023-05-10T22:16:01.728Z,53.26
2023-05-10T22:19:02.792Z,55.09
2023-05-10T22:22:04.922Z,57.10
2023-05-10T22:25:05.909Z,54.88
2023-05-10T22:28:06.692Z,53.05
2023-05-10T22:31:07.736Z,52.36
2023-05-10T22:34:10.938Z,54.21
2023-05-10T22:37:12.811Z,54.48
2023-05-10T22:40:13.752Z,54.29
2023-05-10T22:43:14.787Z,54.03
2023-05-10T22:46:15.804Z,53.65
2023-05-10T22:49:09.838Z,53.44
2023-05-10T22:52:10.745Z,53.72
2023-05-10T22:55:11.718Z,53.37
2023-05-10T22:58:12.807Z,53.18
2023-05-10T23:01:13.765Z,53.33
2023-05-10T23:04:14.796Z,53.32
2023-05-10T23:07:16.737Z,54.09
2023-05-10T23:10:18.216Z,54.83
2023-05-10T23:13:18.810Z,55.09
2023-05-10T23:16:19.846Z,55.28
2023-05-10T23:19:20.866Z,55.31
2023-05-10T23:22:21.803Z,55.42
2023-05-10T23:25:22.827Z,55.48
2023-05-10T23:28:23.833Z,55.56
2023-05-10T23:31:17.951Z,55.54
2023-05-10T23:34:19.828Z,55.76
2023-05-10T23:37:20.906Z,55.88
2023-05-10T23:40:21.901Z,55.92
2023-05-10T23:43:22.838Z,56.21
2023-05-10T23:46:23.906Z,56.23
2023-05-10T23:49:25.882Z,56.26
2023-05-10T23:52:29.848Z,56.49
2023-05-10T23:55:30.820Z,56.82
2023-05-10T23:58:32.035Z,57.26
